sensor_id;sensor_type;location;lat;lon;timestamp;P1;durP1;ratioP1;P2;durP2;ratioP2
14080;SDS011;7116;52.152;5.392;2022-09-09T00:01:42;2.33;;;1.60;;
14080;SDS011;7116;52.152;5.392;2022-09-09T00:04:23;2.28;;;1.85;;
14080;SDS011;7116;52.152;5.392;2022-09-09T00:06:53;2.08;;;1.85;;
14080;SDS011;7116;52.152;5.392;2022-09-09T00:09:21;3.17;;;1.92;;
14080;SDS011;7116;52.152;5.392;2022-09-09T00:11:54;4.85;;;2.17;;
14080;SDS011;7116;52.152;5.392;2022-09-09T00:14:30;3.03;;;1.70;;
14080;SDS011;7116;52.152;5.392;2022-09-09T00:16:59;3.55;;;2.00;;
14080;SDS011;7116;52.152;5.392;2022-09-09T00:19:37;2.67;;;1.73;;
14080;SDS011;7116;52.152;5.392;2022-09-09T00:22:13;3.67;;;2.38;;
14080;SDS011;7116;52.152;5.392;2022-09-09T00:24:46;3.58;;;1.75;;
14080;SDS011;7116;52.152;5.392;2022-09-09T00:27:19;5.37;;;1.80;;
14080;SDS011;7116;52.152;5.392;2022-09-09T00:29:47;5.80;;;1.83;;
14080;SDS011;7116;52.152;5.392;2022-09-09T00:32:16;4.18;;;2.05;;
14080;SDS011;7116;52.152;5.392;2022-09-09T00:34:46;4.10;;;2.20;;
14080;SDS011;7116;52.152;5.392;2022-09-09T00:37:12;4.35;;;1.90;;
14080;SDS011;7116;52.152;5.392;2022-09-09T00:39:46;2.90;;;1.90;;
14080;SDS011;7116;52.152;5.392;2022-09-09T00:42:16;4.43;;;2.13;;
14080;SDS011;7116;52.152;5.392;2022-09-09T00:44:48;4.35;;;2.03;;
14080;SDS011;7116;52.152;5.392;2022-09-09T00:50:02;3.65;;;1.60;;
14080;SDS011;7116;52.152;5.392;2022-09-09T00:57:31;3.70;;;2.40;;
14080;SDS011;7116;52.152;5.392;2022-09-09T01:00:16;2.70;;;2.08;;
14080;SDS011;7116;52.152;5.392;2022-09-09T01:05:20;4.50;;;1.90;;
14080;SDS011;7116;52.152;5.392;2022-09-09T01:07:48;2.50;;;1.73;;
14080;SDS011;7116;52.152;5.392;2022-09-09T01:10:17;2.53;;;2.20;;
14080;SDS011;7116;52.152;5.392;2022-09-09T01:12:47;2.88;;;2.50;;
14080;SDS011;7116;52.152;5.392;2022-09-09T01:15:16;3.20;;;1.90;;
14080;SDS011;7116;52.152;5.392;2022-09-09T01:20:24;5.93;;;2.35;;
14080;SDS011;7116;52.152;5.392;2022-09-09T01:23:00;4.13;;;2.33;;
14080;SDS011;7116;52.152;5.392;2022-09-09T01:28:16;6.30;;;2.38;;
14080;SDS011;7116;52.152;5.392;2022-09-09T01:30:41;3.13;;;2.25;;
14080;SDS011;7116;52.152;5.392;2022-09-09T01:33:07;5.43;;;2.93;;
14080;SDS011;7116;52.152;5.392;2022-09-09T01:38:13;4.00;;;2.07;;
14080;SDS011;7116;52.152;5.392;2022-09-09T01:40:39;4.50;;;2.28;;
14080;SDS011;7116;52.152;5.392;2022-09-09T01:43:04;2.97;;;2.30;;
14080;SDS011;7116;52.152;5.392;2022-09-09T01:45:29;5.03;;;2.57;;
14080;SDS011;7116;52.152;5.392;2022-09-09T01:47:55;4.23;;;2.10;;
14080;SDS011;7116;52.152;5.392;2022-09-09T01:50:21;3.72;;;2.58;;
14080;SDS011;7116;52.152;5.392;2022-09-09T01:52:47;4.33;;;2.27;;
14080;SDS011;7116;52.152;5.392;2022-09-09T01:55:13;3.08;;;2.22;;
14080;SDS011;7116;52.152;5.392;2022-09-09T01:57:45;5.63;;;2.40;;
14080;SDS011;7116;52.152;5.392;2022-09-09T02:00:14;3.60;;;2.53;;
14080;SDS011;7116;52.152;5.392;2022-09-09T02:02:54;3.03;;;2.70;;
14080;SDS011;7116;52.152;5.392;2022-09-09T02:05:31;3.97;;;2.75;;
14080;SDS011;7116;52.152;5.392;2022-09-09T02:08:07;6.07;;;2.67;;
14080;SDS011;7116;52.152;5.392;2022-09-09T02:10:36;4.88;;;2.38;;
14080;SDS011;7116;52.152;5.392;2022-09-09T02:13:10;4.03;;;2.25;;
14080;SDS011;7116;52.152;5.392;2022-09-09T02:15:39;5.90;;;2.80;;
14080;SDS011;7116;52.152;5.392;2022-09-09T02:18:07;3.80;;;2.88;;
14080;SDS011;7116;52.152;5.392;2022-09-09T02:20:33;3.78;;;2.55;;
14080;SDS011;7116;52.152;5.392;2022-09-09T02:22:59;4.93;;;3.08;;
14080;SDS011;7116;52.152;5.392;2022-09-09T02:25:26;5.30;;;3.08;;
14080;SDS011;7116;52.152;5.392;2022-09-09T02:27:54;6.47;;;2.60;;
14080;SDS011;7116;52.152;5.392;2022-09-09T02:30:19;6.63;;;3.10;;
14080;SDS011;7116;52.152;5.392;2022-09-09T02:32:45;6.17;;;2.67;;
14080;SDS011;7116;52.152;5.392;2022-09-09T02:35:13;6.10;;;3.05;;
14080;SDS011;7116;52.152;5.392;2022-09-09T02:37:39;5.67;;;3.20;;
14080;SDS011;7116;52.152;5.392;2022-09-09T02:40:05;4.40;;;3.10;;
14080;SDS011;7116;52.152;5.392;2022-09-09T02:42:31;4.32;;;2.90;;
14080;SDS011;7116;52.152;5.392;2022-09-09T02:44:56;4.23;;;2.90;;
14080;SDS011;7116;52.152;5.392;2022-09-09T02:47:36;7.10;;;3.40;;
14080;SDS011;7116;52.152;5.392;2022-09-09T02:50:08;4.50;;;3.17;;
14080;SDS011;7116;52.152;5.392;2022-09-09T02:52:42;4.27;;;3.00;;
14080;SDS011;7116;52.152;5.392;2022-09-09T02:55:12;5.25;;;3.70;;
14080;SDS011;7116;52.152;5.392;2022-09-09T02:57:40;4.80;;;3.40;;
14080;SDS011;7116;52.152;5.392;2022-09-09T03:00:07;5.35;;;3.53;;
14080;SDS011;7116;52.152;5.392;2022-09-09T03:02:33;4.93;;;2.87;;
14080;SDS011;7116;52.152;5.392;2022-09-09T03:04:58;6.23;;;2.67;;
14080;SDS011;7116;52.152;5.392;2022-09-09T03:07:23;4.87;;;3.13;;
14080;SDS011;7116;52.152;5.392;2022-09-09T03:09:48;7.37;;;3.80;;
14080;SDS011;7116;52.152;5.392;2022-09-09T03:12:14;4.67;;;3.10;;
14080;SDS011;7116;52.152;5.392;2022-09-09T03:14:39;7.68;;;3.35;;
14080;SDS011;7116;52.152;5.392;2022-09-09T03:17:05;4.37;;;3.03;;
14080;SDS011;7116;52.152;5.392;2022-09-09T03:19:30;5.93;;;3.50;;
14080;SDS011;7116;52.152;5.392;2022-09-09T03:21:56;6.40;;;3.70;;
14080;SDS011;7116;52.152;5.392;2022-09-09T03:24:21;5.67;;;3.83;;
14080;SDS011;7116;52.152;5.392;2022-09-09T03:26:47;4.60;;;3.43;;
14080;SDS011;7116;52.152;5.392;2022-09-09T03:29:13;5.30;;;3.10;;
14080;SDS011;7116;52.152;5.392;2022-09-09T03:31:38;7.23;;;3.57;;
14080;SDS011;7116;52.152;5.392;2022-09-09T03:34:04;3.77;;;3.07;;
14080;SDS011;7116;52.152;5.392;2022-09-09T03:36:29;5.50;;;3.27;;
14080;SDS011;7116;52.152;5.392;2022-09-09T03:38:54;7.97;;;4.15;;
14080;SDS011;7116;52.152;5.392;2022-09-09T03:41:20;7.13;;;3.83;;
14080;SDS011;7116;52.152;5.392;2022-09-09T03:43:47;5.85;;;3.80;;
14080;SDS011;7116;52.152;5.392;2022-09-09T03:46:12;5.20;;;3.40;;
14080;SDS011;7116;52.152;5.392;2022-09-09T03:48:37;4.22;;;3.10;;
14080;SDS011;7116;52.152;5.392;2022-09-09T03:51:02;5.90;;;3.45;;
14080;SDS011;7116;52.152;5.392;2022-09-09T03:53:28;4.90;;;3.83;;
14080;SDS011;7116;52.152;5.392;2022-09-09T03:55:54;5.77;;;4.00;;
14080;SDS011;7116;52.152;5.392;2022-09-09T03:58:20;5.03;;;3.47;;
14080;SDS011;7116;52.152;5.392;2022-09-09T04:00:55;6.47;;;3.90;;
14080;SDS011;7116;52.152;5.392;2022-09-09T04:03:21;4.82;;;3.50;;
14080;SDS011;7116;52.152;5.392;2022-09-09T04:05:48;6.60;;;3.45;;
14080;SDS011;7116;52.152;5.392;2022-09-09T04:08:13;4.70;;;3.53;;
14080;SDS011;7116;52.152;5.392;2022-09-09T04:10:39;6.05;;;3.63;;
14080;SDS011;7116;52.152;5.392;2022-09-09T04:13:04;5.83;;;3.60;;
14080;SDS011;7116;52.152;5.392;2022-09-09T04:15:30;4.87;;;3.67;;
14080;SDS011;7116;52.152;5.392;2022-09-09T04:17:55;5.57;;;3.78;;
14080;SDS011;7116;52.152;5.392;2022-09-09T04:20:21;4.90;;;3.50;;
14080;SDS011;7116;52.152;5.392;2022-09-09T04:22:47;6.23;;;3.60;;
14080;SDS011;7116;52.152;5.392;2022-09-09T04:25:12;4.87;;;3.50;;
14080;SDS011;7116;52.152;5.392;2022-09-09T04:27:37;4.60;;;3.00;;
14080;SDS011;7116;52.152;5.392;2022-09-09T04:30:02;5.23;;;3.87;;
14080;SDS011;7116;52.152;5.392;2022-09-09T04:32:27;4.20;;;3.30;;
14080;SDS011;7116;52.152;5.392;2022-09-09T04:34:53;5.07;;;3.40;;
14080;SDS011;7116;52.152;5.392;2022-09-09T04:37:18;6.00;;;3.72;;
14080;SDS011;7116;52.152;5.392;2022-09-09T04:39:43;7.53;;;4.03;;
14080;SDS011;7116;52.152;5.392;2022-09-09T04:42:08;6.00;;;3.53;;
14080;SDS011;7116;52.152;5.392;2022-09-09T04:44:34;4.00;;;3.07;;
14080;SDS011;7116;52.152;5.392;2022-09-09T04:46:59;5.13;;;4.00;;
14080;SDS011;7116;52.152;5.392;2022-09-09T04:49:24;6.80;;;3.73;;
14080;SDS011;7116;52.152;5.392;2022-09-09T04:51:49;10.27;;;3.80;;
14080;SDS011;7116;52.152;5.392;2022-09-09T04:54:14;6.80;;;3.73;;
14080;SDS011;7116;52.152;5.392;2022-09-09T04:56:39;8.20;;;3.00;;
14080;SDS011;7116;52.152;5.392;2022-09-09T04:59:07;11.02;;;3.28;;
14080;SDS011;7116;52.152;5.392;2022-09-09T05:01:32;5.60;;;3.03;;
14080;SDS011;7116;52.152;5.392;2022-09-09T05:03:57;6.77;;;3.90;;
14080;SDS011;7116;52.152;5.392;2022-09-09T05:06:22;8.73;;;3.70;;
14080;SDS011;7116;52.152;5.392;2022-09-09T05:08:48;4.43;;;3.30;;
14080;SDS011;7116;52.152;5.392;2022-09-09T05:11:21;6.75;;;3.38;;
14080;SDS011;7116;52.152;5.392;2022-09-09T05:13:48;5.28;;;2.67;;
14080;SDS011;7116;52.152;5.392;2022-09-09T05:16:14;11.37;;;3.67;;
14080;SDS011;7116;52.152;5.392;2022-09-09T05:18:40;6.80;;;2.90;;
14080;SDS011;7116;52.152;5.392;2022-09-09T05:21:06;7.07;;;3.45;;
14080;SDS011;7116;52.152;5.392;2022-09-09T05:23:35;6.40;;;3.38;;
14080;SDS011;7116;52.152;5.392;2022-09-09T05:26:01;5.40;;;2.73;;
14080;SDS011;7116;52.152;5.392;2022-09-09T05:28:26;4.18;;;3.03;;
14080;SDS011;7116;52.152;5.392;2022-09-09T05:31:02;5.63;;;3.30;;
14080;SDS011;7116;52.152;5.392;2022-09-09T05:33:33;5.63;;;2.80;;
14080;SDS011;7116;52.152;5.392;2022-09-09T05:36:00;5.47;;;3.17;;
14080;SDS011;7116;52.152;5.392;2022-09-09T05:38:26;6.93;;;3.55;;
14080;SDS011;7116;52.152;5.392;2022-09-09T05:40:52;9.23;;;3.47;;
14080;SDS011;7116;52.152;5.392;2022-09-09T05:43:17;6.83;;;2.93;;
14080;SDS011;7116;52.152;5.392;2022-09-09T05:45:43;6.45;;;3.25;;
14080;SDS011;7116;52.152;5.392;2022-09-09T05:48:08;5.23;;;3.73;;
14080;SDS011;7116;52.152;5.392;2022-09-09T05:50:33;5.70;;;3.63;;
14080;SDS011;7116;52.152;5.392;2022-09-09T05:52:58;10.93;;;3.10;;
14080;SDS011;7116;52.152;5.392;2022-09-09T05:55:24;6.93;;;3.57;;
14080;SDS011;7116;52.152;5.392;2022-09-09T05:57:50;6.50;;;3.05;;
14080;SDS011;7116;52.152;5.392;2022-09-09T06:00:17;5.05;;;2.83;;
14080;SDS011;7116;52.152;5.392;2022-09-09T06:02:42;8.10;;;3.07;;
14080;SDS011;7116;52.152;5.392;2022-09-09T06:05:07;4.47;;;2.37;;
14080;SDS011;7116;52.152;5.392;2022-09-09T06:07:33;4.20;;;2.97;;
14080;SDS011;7116;52.152;5.392;2022-09-09T06:09:58;6.03;;;2.67;;
14080;SDS011;7116;52.152;5.392;2022-09-09T06:12:24;4.10;;;2.72;;
14080;SDS011;7116;52.152;5.392;2022-09-09T06:14:50;7.95;;;3.80;;
14080;SDS011;7116;52.152;5.392;2022-09-09T06:17:16;8.57;;;3.03;;
14080;SDS011;7116;52.152;5.392;2022-09-09T06:19:41;6.03;;;2.80;;
14080;SDS011;7116;52.152;5.392;2022-09-09T06:22:06;7.30;;;2.63;;
14080;SDS011;7116;52.152;5.392;2022-09-09T06:24:32;6.20;;;3.33;;
14080;SDS011;7116;52.152;5.392;2022-09-09T06:26:57;4.75;;;2.70;;
14080;SDS011;7116;52.152;5.392;2022-09-09T06:29:23;5.17;;;3.00;;
14080;SDS011;7116;52.152;5.392;2022-09-09T06:31:48;5.13;;;2.70;;
14080;SDS011;7116;52.152;5.392;2022-09-09T06:34:13;6.23;;;2.90;;
14080;SDS011;7116;52.152;5.392;2022-09-09T06:36:38;3.93;;;2.50;;
14080;SDS011;7116;52.152;5.392;2022-09-09T06:39:04;7.70;;;2.77;;
14080;SDS011;7116;52.152;5.392;2022-09-09T06:41:30;5.93;;;2.53;;
14080;SDS011;7116;52.152;5.392;2022-09-09T06:43:55;6.15;;;2.58;;
14080;SDS011;7116;52.152;5.392;2022-09-09T06:46:21;6.77;;;2.20;;
14080;SDS011;7116;52.152;5.392;2022-09-09T06:48:47;6.28;;;2.58;;
14080;SDS011;7116;52.152;5.392;2022-09-09T06:51:16;9.03;;;2.60;;
14080;SDS011;7116;52.152;5.392;2022-09-09T06:53:42;5.35;;;2.13;;
14080;SDS011;7116;52.152;5.392;2022-09-09T06:56:30;8.98;;;2.65;;
14080;SDS011;7116;52.152;5.392;2022-09-09T06:58:56;7.32;;;2.80;;
14080;SDS011;7116;52.152;5.392;2022-09-09T07:01:24;9.40;;;2.50;;
14080;SDS011;7116;52.152;5.392;2022-09-09T07:03:50;7.95;;;2.40;;
14080;SDS011;7116;52.152;5.392;2022-09-09T07:06:19;10.45;;;2.47;;
14080;SDS011;7116;52.152;5.392;2022-09-09T07:08:48;6.35;;;2.63;;
14080;SDS011;7116;52.152;5.392;2022-09-09T07:11:14;9.63;;;2.90;;
14080;SDS011;7116;52.152;5.392;2022-09-09T07:13:39;8.97;;;2.40;;
14080;SDS011;7116;52.152;5.392;2022-09-09T07:16:05;5.85;;;2.30;;
14080;SDS011;7116;52.152;5.392;2022-09-09T07:18:31;13.17;;;2.23;;
14080;SDS011;7116;52.152;5.392;2022-09-09T07:20:56;9.60;;;2.00;;
14080;SDS011;7116;52.152;5.392;2022-09-09T07:23:21;8.13;;;2.20;;
14080;SDS011;7116;52.152;5.392;2022-09-09T07:25:47;4.73;;;2.70;;
14080;SDS011;7116;52.152;5.392;2022-09-09T07:28:12;6.17;;;2.53;;
14080;SDS011;7116;52.152;5.392;2022-09-09T07:30:37;8.13;;;2.73;;
14080;SDS011;7116;52.152;5.392;2022-09-09T07:33:03;9.50;;;2.73;;
14080;SDS011;7116;52.152;5.392;2022-09-09T07:35:28;5.33;;;2.67;;
14080;SDS011;7116;52.152;5.392;2022-09-09T07:37:53;8.80;;;2.90;;
14080;SDS011;7116;52.152;5.392;2022-09-09T07:40:18;8.57;;;2.33;;
14080;SDS011;7116;52.152;5.392;2022-09-09T07:42:46;8.05;;;2.65;;
14080;SDS011;7116;52.152;5.392;2022-09-09T07:45:11;5.82;;;2.30;;
14080;SDS011;7116;52.152;5.392;2022-09-09T07:47:37;6.10;;;2.60;;
14080;SDS011;7116;52.152;5.392;2022-09-09T07:50:02;8.30;;;2.90;;
14080;SDS011;7116;52.152;5.392;2022-09-09T07:52:27;7.43;;;2.60;;
14080;SDS011;7116;52.152;5.392;2022-09-09T07:54:52;9.07;;;2.40;;
14080;SDS011;7116;52.152;5.392;2022-09-09T07:57:17;8.03;;;2.43;;
14080;SDS011;7116;52.152;5.392;2022-09-09T07:59:43;9.03;;;2.30;;
14080;SDS011;7116;52.152;5.392;2022-09-09T08:02:08;8.63;;;3.20;;
14080;SDS011;7116;52.152;5.392;2022-09-09T08:04:34;7.32;;;2.58;;
14080;SDS011;7116;52.152;5.392;2022-09-09T08:07:00;6.83;;;2.77;;
14080;SDS011;7116;52.152;5.392;2022-09-09T08:09:26;9.23;;;2.90;;
14080;SDS011;7116;52.152;5.392;2022-09-09T08:11:53;7.78;;;2.92;;
14080;SDS011;7116;52.152;5.392;2022-09-09T08:14:19;14.33;;;2.53;;
14080;SDS011;7116;52.152;5.392;2022-09-09T08:16:45;7.90;;;2.17;;
14080;SDS011;7116;52.152;5.392;2022-09-09T08:19:11;5.57;;;2.30;;
14080;SDS011;7116;52.152;5.392;2022-09-09T08:21:37;14.43;;;2.70;;
14080;SDS011;7116;52.152;5.392;2022-09-09T08:24:04;7.07;;;2.58;;
14080;SDS011;7116;52.152;5.392;2022-09-09T08:26:37;8.23;;;2.47;;
14080;SDS011;7116;52.152;5.392;2022-09-09T08:29:03;7.15;;;2.72;;
14080;SDS011;7116;52.152;5.392;2022-09-09T08:33:57;8.27;;;2.30;;
14080;SDS011;7116;52.152;5.392;2022-09-09T08:36:24;9.70;;;3.03;;
14080;SDS011;7116;52.152;5.392;2022-09-09T08:38:54;8.02;;;2.20;;
14080;SDS011;7116;52.152;5.392;2022-09-09T08:46:38;8.73;;;2.33;;
14080;SDS011;7116;52.152;5.392;2022-09-09T08:51:56;9.43;;;2.55;;
14080;SDS011;7116;52.152;5.392;2022-09-09T08:54:22;9.27;;;3.20;;
14080;SDS011;7116;52.152;5.392;2022-09-09T08:56:48;9.85;;;2.45;;
14080;SDS011;7116;52.152;5.392;2022-09-09T08:59:14;8.57;;;2.67;;
14080;SDS011;7116;52.152;5.392;2022-09-09T09:01:42;9.23;;;2.23;;
14080;SDS011;7116;52.152;5.392;2022-09-09T09:04:54;12.40;;;2.67;;
14080;SDS011;7116;52.152;5.392;2022-09-09T09:12:19;7.07;;;2.35;;
14080;SDS011;7116;52.152;5.392;2022-09-09T09:14:46;5.57;;;2.43;;
14080;SDS011;7116;52.152;5.392;2022-09-09T09:17:12;4.85;;;2.22;;
14080;SDS011;7116;52.152;5.392;2022-09-09T09:19:40;6.68;;;2.60;;
14080;SDS011;7116;52.152;5.392;2022-09-09T09:27:13;11.63;;;2.53;;
14080;SDS011;7116;52.152;5.392;2022-09-09T09:29:40;5.70;;;2.30;;
14080;SDS011;7116;52.152;5.392;2022-09-09T09:32:07;8.38;;;2.78;;
14080;SDS011;7116;52.152;5.392;2022-09-09T09:34:37;6.80;;;2.22;;
14080;SDS011;7116;52.152;5.392;2022-09-09T09:37:02;8.25;;;2.47;;
14080;SDS011;7116;52.152;5.392;2022-09-09T09:39:36;7.05;;;2.75;;
14080;SDS011;7116;52.152;5.392;2022-09-09T09:42:07;7.53;;;2.43;;
14080;SDS011;7116;52.152;5.392;2022-09-09T09:44:35;9.15;;;2.63;;
14080;SDS011;7116;52.152;5.392;2022-09-09T09:47:06;5.88;;;2.50;;
14080;SDS011;7116;52.152;5.392;2022-09-09T09:49:31;6.57;;;2.28;;
14080;SDS011;7116;52.152;5.392;2022-09-09T09:52:01;8.25;;;2.85;;
14080;SDS011;7116;52.152;5.392;2022-09-09T09:54:34;6.77;;;2.30;;
14080;SDS011;7116;52.152;5.392;2022-09-09T09:57:08;8.40;;;2.75;;
14080;SDS011;7116;52.152;5.392;2022-09-09T09:59:34;8.82;;;2.42;;
14080;SDS011;7116;52.152;5.392;2022-09-09T10:02:37;7.80;;;2.95;;
14080;SDS011;7116;52.152;5.392;2022-09-09T10:07:36;7.93;;;3.40;;
14080;SDS011;7116;52.152;5.392;2022-09-09T10:10:02;5.05;;;2.40;;
14080;SDS011;7116;52.152;5.392;2022-09-09T10:12:35;9.23;;;2.50;;
14080;SDS011;7116;52.152;5.392;2022-09-09T10:22:32;6.13;;;2.40;;
14080;SDS011;7116;52.152;5.392;2022-09-09T10:35:29;8.90;;;2.65;;
14080;SDS011;7116;52.152;5.392;2022-09-09T10:38:11;11.47;;;2.50;;
14080;SDS011;7116;52.152;5.392;2022-09-09T10:45:52;5.80;;;2.35;;
14080;SDS011;7116;52.152;5.392;2022-09-09T10:48:26;8.88;;;2.80;;
14080;SDS011;7116;52.152;5.392;2022-09-09T10:51:09;5.80;;;2.00;;
14080;SDS011;7116;52.152;5.392;2022-09-09T10:53:51;8.38;;;2.88;;
14080;SDS011;7116;52.152;5.392;2022-09-09T10:56:18;9.15;;;2.80;;
14080;SDS011;7116;52.152;5.392;2022-09-09T10:58:56;7.63;;;2.47;;
14080;SDS011;7116;52.152;5.392;2022-09-09T11:01:25;7.20;;;2.20;;
14080;SDS011;7116;52.152;5.392;2022-09-09T11:03:59;8.30;;;2.20;;
14080;SDS011;7116;52.152;5.392;2022-09-09T11:06:28;6.80;;;2.30;;
14080;SDS011;7116;52.152;5.392;2022-09-09T11:08:55;6.30;;;2.45;;
14080;SDS011;7116;52.152;5.392;2022-09-09T11:11:26;7.32;;;2.25;;
14080;SDS011;7116;52.152;5.392;2022-09-09T11:14:18;8.23;;;2.45;;
14080;SDS011;7116;52.152;5.392;2022-09-09T11:17:03;8.27;;;2.50;;
14080;SDS011;7116;52.152;5.392;2022-09-09T11:21:50;7.07;;;2.38;;
14080;SDS011;7116;52.152;5.392;2022-09-09T11:26:46;5.85;;;2.50;;
14080;SDS011;7116;52.152;5.392;2022-09-09T11:29:21;5.55;;;2.25;;
14080;SDS011;7116;52.152;5.392;2022-09-09T11:34:19;7.03;;;2.60;;
14080;SDS011;7116;52.152;5.392;2022-09-09T11:36:56;4.15;;;2.00;;
14080;SDS011;7116;52.152;5.392;2022-09-09T11:44:36;9.93;;;2.57;;
14080;SDS011;7116;52.152;5.392;2022-09-09T11:47:02;6.83;;;2.73;;
14080;SDS011;7116;52.152;5.392;2022-09-09T11:49:28;4.17;;;2.43;;
14080;SDS011;7116;52.152;5.392;2022-09-09T11:51:53;6.95;;;2.15;;
14080;SDS011;7116;52.152;5.392;2022-09-09T11:54:29;6.18;;;2.70;;
14080;SDS011;7116;52.152;5.392;2022-09-09T11:56:55;13.55;;;3.05;;
14080;SDS011;7116;52.152;5.392;2022-09-09T12:01:57;6.40;;;2.43;;
14080;SDS011;7116;52.152;5.392;2022-09-09T12:04:38;7.55;;;2.60;;
14080;SDS011;7116;52.152;5.392;2022-09-09T12:09:43;7.28;;;2.60;;
14080;SDS011;7116;52.152;5.392;2022-09-09T12:14:38;8.00;;;2.40;;
14080;SDS011;7116;52.152;5.392;2022-09-09T12:19:38;7.03;;;2.60;;
14080;SDS011;7116;52.152;5.392;2022-09-09T12:22:14;9.40;;;3.13;;
14080;SDS011;7116;52.152;5.392;2022-09-09T12:24:57;7.32;;;3.03;;
14080;SDS011;7116;52.152;5.392;2022-09-09T12:27:34;9.07;;;2.90;;
14080;SDS011;7116;52.152;5.392;2022-09-09T12:32:27;8.00;;;2.80;;
14080;SDS011;7116;52.152;5.392;2022-09-09T12:35:01;6.68;;;2.40;;
14080;SDS011;7116;52.152;5.392;2022-09-09T12:37:35;6.53;;;2.85;;
14080;SDS011;7116;52.152;5.392;2022-09-09T12:40:02;6.43;;;2.47;;
14080;SDS011;7116;52.152;5.392;2022-09-09T12:42:28;5.50;;;2.40;;
14080;SDS011;7116;52.152;5.392;2022-09-09T12:44:54;7.13;;;2.43;;
14080;SDS011;7116;52.152;5.392;2022-09-09T12:47:21;5.47;;;3.10;;
14080;SDS011;7116;52.152;5.392;2022-09-09T12:49:47;6.10;;;2.70;;
14080;SDS011;7116;52.152;5.392;2022-09-09T12:52:17;7.10;;;2.78;;
14080;SDS011;7116;52.152;5.392;2022-09-09T12:54:45;5.45;;;2.60;;
14080;SDS011;7116;52.152;5.392;2022-09-09T12:57:12;10.13;;;2.90;;
14080;SDS011;7116;52.152;5.392;2022-09-09T12:59:38;5.50;;;2.40;;
14080;SDS011;7116;52.152;5.392;2022-09-09T13:02:18;6.03;;;2.63;;
14080;SDS011;7116;52.152;5.392;2022-09-09T13:04:44;5.75;;;2.65;;
14080;SDS011;7116;52.152;5.392;2022-09-09T13:07:11;6.53;;;2.60;;
14080;SDS011;7116;52.152;5.392;2022-09-09T13:09:37;5.97;;;2.50;;
14080;SDS011;7116;52.152;5.392;2022-09-09T13:12:03;10.40;;;2.70;;
14080;SDS011;7116;52.152;5.392;2022-09-09T13:14:30;6.05;;;2.50;;
14080;SDS011;7116;52.152;5.392;2022-09-09T13:17:00;5.13;;;2.20;;
14080;SDS011;7116;52.152;5.392;2022-09-09T13:19:25;7.35;;;3.00;;
14080;SDS011;7116;52.152;5.392;2022-09-09T13:21:53;8.82;;;2.65;;
14080;SDS011;7116;52.152;5.392;2022-09-09T13:24:23;6.90;;;2.70;;
14080;SDS011;7116;52.152;5.392;2022-09-09T13:26:57;6.75;;;2.50;;
14080;SDS011;7116;52.152;5.392;2022-09-09T13:29:22;5.87;;;2.13;;
14080;SDS011;7116;52.152;5.392;2022-09-09T13:31:47;7.07;;;2.60;;
14080;SDS011;7116;52.152;5.392;2022-09-09T13:34:34;8.57;;;2.50;;
14080;SDS011;7116;52.152;5.392;2022-09-09T13:37:01;6.20;;;2.28;;
14080;SDS011;7116;52.152;5.392;2022-09-09T13:39:27;6.25;;;2.53;;
14080;SDS011;7116;52.152;5.392;2022-09-09T13:41:52;3.93;;;2.10;;
14080;SDS011;7116;52.152;5.392;2022-09-09T13:44:23;5.17;;;2.40;;
14080;SDS011;7116;52.152;5.392;2022-09-09T13:46:59;6.65;;;2.30;;
14080;SDS011;7116;52.152;5.392;2022-09-09T13:49:24;7.00;;;2.55;;
14080;SDS011;7116;52.152;5.392;2022-09-09T13:52:02;4.93;;;2.42;;
14080;SDS011;7116;52.152;5.392;2022-09-09T13:54:27;5.78;;;2.67;;
14080;SDS011;7116;52.152;5.392;2022-09-09T13:56:52;4.10;;;2.00;;
14080;SDS011;7116;52.152;5.392;2022-09-09T13:59:19;3.93;;;1.90;;
14080;SDS011;7116;52.152;5.392;2022-09-09T14:01:49;7.20;;;2.47;;
14080;SDS011;7116;52.152;5.392;2022-09-09T14:04:14;8.37;;;2.83;;
14080;SDS011;7116;52.152;5.392;2022-09-09T14:06:40;5.22;;;2.72;;
14080;SDS011;7116;52.152;5.392;2022-09-09T14:09:06;7.70;;;2.70;;
14080;SDS011;7116;52.152;5.392;2022-09-09T14:11:32;5.50;;;2.40;;
14080;SDS011;7116;52.152;5.392;2022-09-09T14:13:57;7.90;;;2.50;;
14080;SDS011;7116;52.152;5.392;2022-09-09T14:16:22;5.33;;;2.30;;
14080;SDS011;7116;52.152;5.392;2022-09-09T14:18:47;7.00;;;2.63;;
14080;SDS011;7116;52.152;5.392;2022-09-09T14:21:13;7.57;;;2.93;;
14080;SDS011;7116;52.152;5.392;2022-09-09T14:23:38;8.77;;;3.00;;
14080;SDS011;7116;52.152;5.392;2022-09-09T14:26:04;6.47;;;2.60;;
14080;SDS011;7116;52.152;5.392;2022-09-09T14:28:29;4.73;;;2.00;;
14080;SDS011;7116;52.152;5.392;2022-09-09T14:30:58;3.75;;;2.50;;
14080;SDS011;7116;52.152;5.392;2022-09-09T14:33:23;6.53;;;2.50;;
14080;SDS011;7116;52.152;5.392;2022-09-09T14:35:54;8.73;;;2.28;;
14080;SDS011;7116;52.152;5.392;2022-09-09T14:38:20;5.47;;;2.50;;
14080;SDS011;7116;52.152;5.392;2022-09-09T14:40:45;8.30;;;2.90;;
14080;SDS011;7116;52.152;5.392;2022-09-09T14:43:11;6.20;;;2.60;;
14080;SDS011;7116;52.152;5.392;2022-09-09T14:45:37;6.83;;;2.93;;
14080;SDS011;7116;52.152;5.392;2022-09-09T14:48:03;6.63;;;2.57;;
14080;SDS011;7116;52.152;5.392;2022-09-09T14:50:28;7.32;;;2.63;;
14080;SDS011;7116;52.152;5.392;2022-09-09T14:52:53;3.80;;;1.90;;
14080;SDS011;7116;52.152;5.392;2022-09-09T14:55:18;6.03;;;2.58;;
14080;SDS011;7116;52.152;5.392;2022-09-09T14:57:44;5.70;;;2.50;;
14080;SDS011;7116;52.152;5.392;2022-09-09T15:00:10;9.55;;;2.95;;
14080;SDS011;7116;52.152;5.392;2022-09-09T15:02:36;8.65;;;3.25;;
14080;SDS011;7116;52.152;5.392;2022-09-09T15:05:01;6.17;;;2.60;;
14080;SDS011;7116;52.152;5.392;2022-09-09T15:07:26;5.20;;;2.30;;
14080;SDS011;7116;52.152;5.392;2022-09-09T15:09:53;5.53;;;2.77;;
14080;SDS011;7116;52.152;5.392;2022-09-09T15:12:19;5.00;;;2.50;;
14080;SDS011;7116;52.152;5.392;2022-09-09T15:14:45;4.88;;;2.55;;
14080;SDS011;7116;52.152;5.392;2022-09-09T15:17:13;5.25;;;2.60;;
14080;SDS011;7116;52.152;5.392;2022-09-09T15:19:38;5.47;;;2.37;;
14080;SDS011;7116;52.152;5.392;2022-09-09T15:22:04;7.77;;;2.57;;
14080;SDS011;7116;52.152;5.392;2022-09-09T15:24:30;4.35;;;2.08;;
14080;SDS011;7116;52.152;5.392;2022-09-09T15:26:55;4.87;;;2.43;;
14080;SDS011;7116;52.152;5.392;2022-09-09T15:29:21;6.30;;;2.08;;
14080;SDS011;7116;52.152;5.392;2022-09-09T15:31:46;5.05;;;2.20;;
14080;SDS011;7116;52.152;5.392;2022-09-09T15:34:12;7.90;;;2.23;;
14080;SDS011;7116;52.152;5.392;2022-09-09T15:36:42;3.53;;;1.80;;
14080;SDS011;7116;52.152;5.392;2022-09-09T15:39:08;2.85;;;1.83;;
14080;SDS011;7116;52.152;5.392;2022-09-09T15:41:37;3.40;;;1.67;;
14080;SDS011;7116;52.152;5.392;2022-09-09T15:44:02;3.22;;;1.77;;
14080;SDS011;7116;52.152;5.392;2022-09-09T15:49:04;3.27;;;2.17;;
14080;SDS011;7116;52.152;5.392;2022-09-09T15:51:29;3.55;;;1.90;;
14080;SDS011;7116;52.152;5.392;2022-09-09T15:53:55;3.67;;;2.20;;
14080;SDS011;7116;52.152;5.392;2022-09-09T15:56:20;5.47;;;2.00;;
14080;SDS011;7116;52.152;5.392;2022-09-09T15:58:46;2.97;;;1.93;;
14080;SDS011;7116;52.152;5.392;2022-09-09T16:01:11;4.57;;;2.10;;
14080;SDS011;7116;52.152;5.392;2022-09-09T16:03:41;5.15;;;2.03;;
14080;SDS011;7116;52.152;5.392;2022-09-09T16:06:07;5.20;;;2.70;;
14080;SDS011;7116;52.152;5.392;2022-09-09T16:08:37;3.80;;;1.90;;
14080;SDS011;7116;52.152;5.392;2022-09-09T16:11:04;5.28;;;2.15;;
14080;SDS011;7116;52.152;5.392;2022-09-09T16:13:32;3.40;;;2.33;;
14080;SDS011;7116;52.152;5.392;2022-09-09T16:15:57;4.10;;;2.25;;
14080;SDS011;7116;52.152;5.392;2022-09-09T16:18:23;5.30;;;2.17;;
14080;SDS011;7116;52.152;5.392;2022-09-09T16:20:54;4.37;;;2.37;;
14080;SDS011;7116;52.152;5.392;2022-09-09T16:23:19;5.63;;;2.60;;
14080;SDS011;7116;52.152;5.392;2022-09-09T16:25:52;6.90;;;2.15;;
14080;SDS011;7116;52.152;5.392;2022-09-09T16:28:17;5.60;;;2.40;;
14080;SDS011;7116;52.152;5.392;2022-09-09T16:30:42;5.27;;;2.13;;
14080;SDS011;7116;52.152;5.392;2022-09-09T16:33:08;6.97;;;2.30;;
14080;SDS011;7116;52.152;5.392;2022-09-09T16:35:35;5.67;;;2.10;;
14080;SDS011;7116;52.152;5.392;2022-09-09T16:38:01;3.13;;;2.17;;